createdAt,value
2023-02-22T00:01:47.399Z,98.09
2023-02-22T00:04:15.978Z,97.76
2023-02-22T00:06:42.674Z,97.33
2023-02-22T00:09:10.336Z,97.59
2023-02-22T00:11:38.531Z,98.11
2023-02-22T00:14:05.592Z,97.72
2023-02-22T00:16:32.181Z,97.82
2023-02-22T00:18:58.773Z,97.48
2023-02-22T00:21:25.458Z,98.41
2023-02-22T00:23:54.589Z,98.70
2023-02-22T00:26:23.497Z,98.76
2023-02-22T00:28:56.504Z,98.63
2023-02-22T00:31:26.191Z,98.32
2023-02-22T00:33:52.703Z,98.23
2023-02-22T00:36:20.087Z,98.60
2023-02-22T00:38:46.498Z,99.38
2023-02-22T00:41:15.317Z,99.23
2023-02-22T00:43:42.361Z,99.04
2023-02-22T00:46:09.074Z,98.14
2023-02-22T00:48:35.634Z,98.47
2023-02-22T00:51:02.298Z,98.28
2023-02-22T00:53:29.734Z,98.28
2023-02-22T00:55:56.312Z,98.16
2023-02-22T00:58:24.362Z,98.13
2023-02-22T01:00:51.123Z,98.61
2023-02-22T01:03:20.421Z,98.44
2023-02-22T01:05:47.820Z,98.28
2023-02-22T01:08:16.056Z,98.28
2023-02-22T01:10:42.938Z,98.03
2023-02-22T01:13:12.209Z,97.90
2023-02-22T01:15:41.801Z,97.89
2023-02-22T01:18:11.522Z,97.84
2023-02-22T01:20:39.548Z,97.79
2023-02-22T01:23:08.079Z,97.77
2023-02-22T01:25:35.688Z,97.54
2023-02-22T01:28:04.451Z,97.54
2023-02-22T01:30:35.267Z,97.62
2023-02-22T01:33:03.790Z,97.61
2023-02-22T01:35:36.250Z,97.82
2023-02-22T01:38:02.934Z,97.71
2023-02-22T01:40:36.478Z,97.87
2023-02-22T01:43:25.547Z,97.63
2023-02-22T01:45:58.259Z,97.70
2023-02-22T01:48:33.798Z,98.20
2023-02-22T01:51:11.342Z,98.12
2023-02-22T01:53:46.299Z,97.96
2023-02-22T01:56:14.890Z,98.10
2023-02-22T01:58:46.252Z,98.10
2023-02-22T02:01:14.199Z,98.58
2023-02-22T02:03:41.979Z,98.40
2023-02-22T02:06:14.896Z,98.45
2023-02-22T02:08:53.554Z,98.27
2023-02-22T02:11:25.394Z,98.14
2023-02-22T02:13:55.131Z,98.61
2023-02-22T02:16:34.618Z,98.63
2023-02-22T02:19:01.432Z,98.44
2023-02-22T02:21:55.045Z,98.33
2023-02-22T02:25:18.604Z,98.29
2023-02-22T02:28:17.147Z,98.58
2023-02-22T02:30:49.923Z,98.89
2023-02-22T02:33:38.196Z,98.64
2023-02-22T02:36:27.980Z,98.32
2023-02-22T02:39:01.619Z,98.23
2023-02-22T02:41:35.408Z,98.53
2023-02-22T02:44:04.557Z,98.83
2023-02-22T02:46:36.707Z,99.13
2023-02-22T02:49:11.181Z,98.87
2023-02-22T02:51:44.310Z,98.87
2023-02-22T02:54:11.740Z,98.88
2023-02-22T02:56:38.443Z,98.76
2023-02-22T02:59:25.352Z,98.69
2023-02-22T03:01:57.925Z,98.82
2023-02-22T03:04:59.978Z,98.87
2023-02-22T03:08:14.030Z,99.41
2023-02-22T03:10:47.182Z,99.19
2023-02-22T03:13:29.147Z,98.83
2023-02-22T03:16:16.564Z,98.95
2023-02-22T03:18:53.191Z,99.77
2023-02-22T03:21:32.044Z,99.35
2023-02-22T03:24:43.690Z,99.25
2023-02-22T03:27:25.869Z,99.73
2023-02-22T03:30:00.391Z,99.54
2023-02-22T03:32:34.247Z,99.34
2023-02-22T03:35:16.555Z,99.63
2023-02-22T03:37:48.888Z,99.61
2023-02-22T03:40:30.041Z,99.58
2023-02-22T03:43:02.353Z,100.00
2023-02-22T03:45:30.777Z,100.00
2023-02-22T03:48:23.407Z,100.00
2023-02-22T03:50:51.013Z,100.00
2023-02-22T03:53:20.101Z,100.00
2023-02-22T03:55:53.564Z,100.00
2023-02-22T03:58:24.993Z,100.00
2023-02-22T04:00:53.247Z,100.00
2023-02-22T04:03:21.078Z,100.00
2023-02-22T04:05:47.808Z,100.00
2023-02-22T04:08:14.467Z,100.00
2023-02-22T04:10:41.164Z,100.00
2023-02-22T04:13:08.762Z,100.00
2023-02-22T04:15:38.246Z,100.00
2023-02-22T04:18:07.131Z,100.00
2023-02-22T04:20:35.869Z,100.00
2023-02-22T04:23:11.045Z,100.00
2023-02-22T04:25:40.013Z,100.00
2023-02-22T04:28:15.179Z,100.00
2023-02-22T04:30:47.128Z,100.00
2023-02-22T04:33:16.189Z,100.00
2023-02-22T04:35:42.774Z,100.00
2023-02-22T04:38:12.177Z,100.00
2023-02-22T04:40:41.631Z,100.00
2023-02-22T04:43:09.848Z,100.00
2023-02-22T04:45:36.415Z,100.00
2023-02-22T04:48:04.591Z,100.00
2023-02-22T04:50:31.114Z,100.00
2023-02-22T04:52:57.718Z,100.00
2023-02-22T04:55:24.636Z,100.00
2023-02-22T04:57:51.177Z,100.00
2023-02-22T05:00:21.653Z,100.00
2023-02-22T05:02:49.977Z,100.00
2023-02-22T05:05:19.273Z,100.00
2023-02-22T05:07:48.197Z,100.00
2023-02-22T05:10:15.195Z,100.00
2023-02-22T05:12:41.710Z,100.00
2023-02-22T05:15:09.480Z,100.00
2023-02-22T05:17:36.510Z,100.00
2023-02-22T05:20:04.478Z,100.00
2023-02-22T05:22:31.010Z,100.00
2023-02-22T05:24:57.573Z,100.00
2023-02-22T05:27:24.627Z,100.00
2023-02-22T05:29:51.037Z,100.00
2023-02-22T05:32:17.625Z,100.00
2023-02-22T05:34:44.266Z,100.00
2023-02-22T05:37:10.776Z,100.00
2023-02-22T05:39:37.269Z,100.00
2023-02-22T05:42:04.158Z,100.00
2023-02-22T05:44:30.826Z,100.00
2023-02-22T05:46:57.326Z,100.00
2023-02-22T05:49:23.950Z,100.00
2023-02-22T05:51:50.534Z,100.00
2023-02-22T05:54:17.026Z,100.00
2023-02-22T05:56:43.580Z,100.00
2023-02-22T05:59:10.106Z,100.00
2023-02-22T06:01:36.674Z,100.00
2023-02-22T06:04:03.318Z,100.00
2023-02-22T06:06:29.899Z,100.00
2023-02-22T06:08:56.464Z,100.00
2023-02-22T06:11:22.998Z,100.00
2023-02-22T06:13:51.936Z,100.00
2023-02-22T06:16:21.554Z,100.00
2023-02-22T06:18:48.704Z,100.00
2023-02-22T06:21:15.244Z,100.00
2023-02-22T06:23:41.808Z,100.00
2023-02-22T06:26:08.391Z,100.00
2023-02-22T06:28:35.030Z,100.00
2023-02-22T06:31:01.550Z,100.00
2023-02-22T06:33:28.655Z,100.00
2023-02-22T06:35:55.529Z,100.00
2023-02-22T06:38:24.277Z,100.00
2023-02-22T06:40:51.205Z,100.00
2023-02-22T06:43:17.775Z,100.00
2023-02-22T06:45:44.405Z,100.00
2023-02-22T06:48:10.936Z,100.00
2023-02-22T06:50:37.960Z,100.00
2023-02-22T06:53:04.828Z,100.00
2023-02-22T06:55:33.320Z,100.00
2023-02-22T06:58:00.330Z,100.00
2023-02-22T07:00:31.308Z,100.00
2023-02-22T07:02:59.119Z,100.00
2023-02-22T07:05:26.892Z,100.00
2023-02-22T07:07:55.564Z,100.00
2023-02-22T07:10:31.027Z,100.00
2023-02-22T07:12:57.768Z,100.00
2023-02-22T07:15:26.381Z,100.00
2023-02-22T07:17:52.979Z,100.00
2023-02-22T07:20:20.973Z,100.00
2023-02-22T07:22:50.703Z,100.00
2023-02-22T07:25:17.686Z,100.00
2023-02-22T07:27:44.809Z,100.00
2023-02-22T07:30:33.110Z,100.00
2023-02-22T07:33:02.386Z,100.00
2023-02-22T07:35:31.942Z,100.00
2023-02-22T07:37:58.905Z,100.00
2023-02-22T07:40:26.988Z,100.00
2023-02-22T07:43:07.140Z,100.00
2023-02-22T07:45:35.547Z,100.00
2023-02-22T07:48:04.444Z,100.00
2023-02-22T07:50:32.607Z,100.00
2023-02-22T07:53:02.557Z,100.00
2023-02-22T07:55:31.414Z,100.00
2023-02-22T07:58:03.997Z,100.00
2023-02-22T08:00:33.400Z,100.00
2023-02-22T08:03:01.911Z,100.00
2023-02-22T08:05:30.303Z,100.00
2023-02-22T08:07:57.048Z,100.00
2023-02-22T08:10:26.430Z,100.00
2023-02-22T08:12:53.891Z,100.00
2023-02-22T08:15:24.442Z,100.00
2023-02-22T08:17:51.475Z,100.00
2023-02-22T08:20:17.916Z,100.00
2023-02-22T08:22:44.922Z,100.00
2023-02-22T08:25:12.157Z,100.00
2023-02-22T08:27:38.783Z,100.00
2023-02-22T08:30:06.499Z,100.00
2023-02-22T08:32:33.805Z,100.00
2023-02-22T08:35:01.279Z,100.00
2023-02-22T08:37:27.791Z,100.00
2023-02-22T08:39:56.114Z,100.00
2023-02-22T08:42:24.794Z,100.00
2023-02-22T08:44:51.367Z,100.00
2023-02-22T08:47:17.873Z,100.00
2023-02-22T08:49:44.881Z,100.00
2023-02-22T08:52:11.395Z,100.00
2023-02-22T08:54:37.891Z,100.00
2023-02-22T08:57:04.608Z,100.00
2023-02-22T08:59:31.154Z,100.00
2023-02-22T09:01:57.735Z,100.00
2023-02-22T09:04:24.484Z,100.00
2023-02-22T09:06:51.897Z,100.00
2023-02-22T09:09:21.275Z,100.00
2023-02-22T09:11:52.674Z,100.00
2023-02-22T09:14:19.694Z,100.00
2023-02-22T09:16:46.421Z,100.00
2023-02-22T09:19:14.398Z,100.00
2023-02-22T09:21:40.992Z,100.00
2023-02-22T09:24:10.893Z,100.00
2023-02-22T09:26:39.474Z,100.00
2023-02-22T09:29:12.126Z,100.00
2023-02-22T09:31:40.634Z,100.00
2023-02-22T09:34:13.925Z,100.00
2023-02-22T09:36:46.183Z,100.00
2023-02-22T09:39:15.370Z,100.00
2023-02-22T09:42:07.806Z,100.00
2023-02-22T09:44:58.522Z,100.00
2023-02-22T09:47:48.494Z,100.00
2023-02-22T09:50:22.385Z,100.00
2023-02-22T09:53:14.382Z,100.00
2023-02-22T09:55:47.790Z,100.00
2023-02-22T09:58:24.363Z,100.00
2023-02-22T10:00:59.588Z,100.00
2023-02-22T10:03:50.477Z,100.00
2023-02-22T10:06:23.819Z,100.00
2023-02-22T10:08:56.598Z,100.00
2023-02-22T10:11:32.473Z,100.00
2023-02-22T10:14:34.574Z,100.00
2023-02-22T10:17:15.269Z,100.00
2023-02-22T10:19:54.878Z,100.00
2023-02-22T10:22:22.084Z,100.00
2023-02-22T10:24:58.822Z,100.00
2023-02-22T10:27:38.427Z,100.00
2023-02-22T10:30:24.069Z,100.00
2023-02-22T10:33:19.169Z,100.00
2023-02-22T10:35:47.188Z,100.00
2023-02-22T10:38:20.125Z,99.68
2023-02-22T10:40:54.850Z,99.62
2023-02-22T10:43:23.333Z,99.14
2023-02-22T10:45:55.864Z,99.05
2023-02-22T10:48:26.319Z,98.79
2023-02-22T10:50:57.419Z,98.87
2023-02-22T10:53:27.720Z,98.57
2023-02-22T10:56:07.444Z,98.51
2023-02-22T10:58:45.668Z,98.55
2023-02-22T11:01:28.802Z,98.77
2023-02-22T11:04:17.981Z,98.70
2023-02-22T11:07:09.579Z,97.84
2023-02-22T11:09:50.284Z,98.20
2023-02-22T11:12:19.906Z,98.25
2023-02-22T11:14:47.174Z,97.46
2023-02-22T11:17:22.335Z,97.39
2023-02-22T11:19:50.582Z,97.58
2023-02-22T11:22:41.063Z,95.94
2023-02-22T11:25:08.725Z,96.15
2023-02-22T11:27:40.477Z,96.53
2023-02-22T11:30:27.711Z,96.82
2023-02-22T11:33:00.886Z,96.95
2023-02-22T11:35:35.819Z,95.42
2023-02-22T11:38:17.803Z,95.51
2023-02-22T11:40:45.795Z,95.14
2023-02-22T11:43:19.264Z,94.92
2023-02-22T11:46:02.718Z,94.14
2023-02-22T11:48:34.598Z,94.41
2023-02-22T11:51:17.239Z,94.22
2023-02-22T11:54:09.802Z,94.56
2023-02-22T11:56:41.141Z,93.89
2023-02-22T11:59:46.507Z,94.27
2023-02-22T12:02:56.590Z,93.66
2023-02-22T12:05:37.617Z,93.06
2023-02-22T12:08:20.211Z,93.48
2023-02-22T12:11:04.102Z,92.97
2023-02-22T12:13:42.592Z,92.42
2023-02-22T12:16:34.626Z,92.53
2023-02-22T12:19:26.292Z,92.42
2023-02-22T12:22:02.380Z,92.39
2023-02-22T12:24:44.427Z,92.68
2023-02-22T12:27:22.263Z,92.88
2023-02-22T12:29:57.767Z,92.61
2023-02-22T12:32:54.804Z,91.69
2023-02-22T12:35:46.205Z,91.49
2023-02-22T12:38:38.431Z,91.54
2023-02-22T12:41:18.956Z,91.82
2023-02-22T12:43:51.766Z,92.36
2023-02-22T12:46:30.541Z,90.89
2023-02-22T12:49:41.501Z,91.05
2023-02-22T12:52:22.178Z,91.05
2023-02-22T12:55:12.893Z,90.07
2023-02-22T12:57:57.168Z,90.76
2023-02-22T13:00:48.300Z,90.40
2023-02-22T13:03:14.827Z,90.68
2023-02-22T13:05:41.581Z,90.66
2023-02-22T13:08:30.062Z,91.04
2023-02-22T13:11:22.293Z,90.00
2023-02-22T13:14:00.273Z,90.40
2023-02-22T13:17:02.443Z,89.83
2023-02-22T13:20:08.355Z,89.76
2023-02-22T13:22:50.021Z,90.57
2023-02-22T13:25:21.479Z,89.58
2023-02-22T13:27:59.400Z,90.19
2023-02-22T13:30:40.649Z,89.82
2023-02-22T13:33:24.309Z,90.19
2023-02-22T13:36:17.523Z,90.81
2023-02-22T13:39:03.321Z,90.67
2023-02-22T13:41:48.445Z,90.71
2023-02-22T13:44:57.234Z,90.54
2023-02-22T13:47:40.965Z,90.23
2023-02-22T13:50:38.171Z,90.27
2023-02-22T13:53:12.091Z,90.50
2023-02-22T13:55:42.928Z,90.65
2023-02-22T13:58:12.452Z,90.81
2023-02-22T14:00:48.524Z,91.06
2023-02-22T14:03:15.264Z,91.48
2023-02-22T14:05:42.308Z,91.04
2023-02-22T14:08:27.951Z,90.64
2023-02-22T14:11:02.524Z,90.60
2023-02-22T14:13:31.165Z,90.48
2023-02-22T14:15:57.790Z,90.44
2023-02-22T14:18:42.005Z,90.13
2023-02-22T14:21:20.485Z,90.47
2023-02-22T14:23:50.743Z,90.04
2023-02-22T14:26:31.154Z,90.40
2023-02-22T14:29:02.793Z,90.42
2023-02-22T14:31:51.526Z,90.53
2023-02-22T14:35:00.751Z,90.10
2023-02-22T14:37:33.692Z,89.82
2023-02-22T14:40:19.587Z,89.06
2023-02-22T14:42:50.974Z,89.45
2023-02-22T14:45:29.932Z,88.99
2023-02-22T14:48:13.735Z,88.34
2023-02-22T14:50:48.818Z,89.06
2023-02-22T14:53:41.036Z,88.78
2023-02-22T14:56:36.216Z,89.08
2023-02-22T14:59:07.817Z,89.29
2023-02-22T15:01:49.337Z,89.06
2023-02-22T15:04:28.319Z,89.29
2023-02-22T15:06:57.095Z,89.16
2023-02-22T15:09:30.099Z,89.32
2023-02-22T15:12:04.021Z,88.96
2023-02-22T15:14:37.568Z,89.15
2023-02-22T15:17:18.372Z,88.95
2023-02-22T15:19:47.051Z,89.33
2023-02-22T15:22:35.811Z,88.82
2023-02-22T15:25:06.363Z,89.63
2023-02-22T15:27:36.987Z,89.85
2023-02-22T15:30:08.026Z,89.51
2023-02-22T15:32:36.690Z,89.90
2023-02-22T15:35:23.433Z,89.87
2023-02-22T15:38:10.969Z,89.56
2023-02-22T15:40:42.866Z,90.17
2023-02-22T15:43:24.276Z,89.97
2023-02-22T15:45:52.158Z,90.21
2023-02-22T15:48:19.643Z,90.10
2023-02-22T15:51:07.018Z,90.27
2023-02-22T15:53:40.151Z,90.40
2023-02-22T15:56:12.417Z,90.59
2023-02-22T15:58:39.455Z,90.58
2023-02-22T16:01:08.744Z,90.54
2023-02-22T16:03:44.794Z,91.07
2023-02-22T16:06:17.796Z,91.11
2023-02-22T16:08:54.746Z,91.54
2023-02-22T16:11:35.805Z,91.72
2023-02-22T16:14:05.899Z,91.93
2023-02-22T16:16:41.555Z,92.26
2023-02-22T16:19:35.730Z,92.36
2023-02-22T16:22:05.208Z,92.57
2023-02-22T16:24:34.347Z,92.86
2023-02-22T16:27:13.161Z,92.75
2023-02-22T16:29:40.166Z,93.01
2023-02-22T16:32:06.997Z,92.97
2023-02-22T16:34:33.779Z,93.28
2023-02-22T16:37:01.336Z,93.42
2023-02-22T16:39:30.354Z,93.44
2023-02-22T16:42:00.193Z,93.56
2023-02-22T16:44:28.026Z,93.51
2023-02-22T16:46:59.441Z,93.96
2023-02-22T16:49:26.969Z,93.64
2023-02-22T16:52:01.116Z,93.74
2023-02-22T16:54:39.688Z,94.00
2023-02-22T16:57:06.497Z,94.27
2023-02-22T16:59:38.541Z,94.42
2023-02-22T17:02:08.532Z,94.17
2023-02-22T17:04:35.276Z,94.30
2023-02-22T17:07:05.032Z,94.01
2023-02-22T17:09:32.929Z,94.65
2023-02-22T17:11:59.866Z,94.56
2023-02-22T17:14:32.791Z,94.65
2023-02-22T17:17:00.216Z,94.83
2023-02-22T17:19:27.313Z,94.92
2023-02-22T17:21:53.799Z,95.09
2023-02-22T17:24:26.107Z,94.89
2023-02-22T17:26:53.221Z,94.78
2023-02-22T17:29:20.602Z,94.85
2023-02-22T17:31:50.940Z,95.07
2023-02-22T17:34:17.934Z,95.03
2023-02-22T17:36:44.650Z,95.54
2023-02-22T17:39:11.071Z,95.71
2023-02-22T17:41:40.534Z,95.47
2023-02-22T17:44:07.713Z,95.35
2023-02-22T17:46:36.122Z,95.52
2023-02-22T17:49:03.380Z,95.44
2023-02-22T17:51:30.063Z,95.75
2023-02-22T17:53:56.678Z,95.71
2023-02-22T17:56:23.364Z,95.80
2023-02-22T17:58:53.811Z,95.88
2023-02-22T18:01:30.731Z,96.06
2023-02-22T18:03:58.715Z,96.10
2023-02-22T18:06:28.540Z,95.84
2023-02-22T18:08:57.061Z,95.75
2023-02-22T18:11:26.580Z,95.90
2023-02-22T18:13:57.619Z,95.99
2023-02-22T18:16:28.193Z,95.81
2023-02-22T18:18:55.774Z,95.96
2023-02-22T18:21:24.176Z,96.00
2023-02-22T18:23:50.806Z,96.17
2023-02-22T18:26:19.930Z,96.11
2023-02-22T18:28:48.716Z,96.05
2023-02-22T18:31:17.923Z,96.23
2023-02-22T18:33:50.451Z,97.05
2023-02-22T18:36:22.887Z,97.12
2023-02-22T18:38:52.284Z,97.24
2023-02-22T18:41:25.197Z,97.18
2023-02-22T18:43:54.997Z,97.46
2023-02-22T18:46:25.374Z,97.40
2023-02-22T18:48:56.898Z,97.32
2023-02-22T18:51:24.882Z,97.67
2023-02-22T18:53:56.991Z,97.72
2023-02-22T18:56:26.564Z,97.75
2023-02-22T18:58:54.703Z,97.81
2023-02-22T19:01:22.013Z,98.08
2023-02-22T19:03:48.966Z,98.03
2023-02-22T19:06:17.122Z,98.14
2023-02-22T19:08:45.406Z,98.34
2023-02-22T19:11:19.437Z,98.22
2023-02-22T19:13:47.538Z,98.15
2023-02-22T19:16:16.451Z,98.30
2023-02-22T19:18:44.191Z,98.66
2023-02-22T19:21:13.829Z,98.42
2023-02-22T19:23:45.540Z,98.50
2023-02-22T19:26:14.369Z,98.41
2023-02-22T19:28:40.934Z,98.61
2023-02-22T19:31:14.737Z,98.92
2023-02-22T19:33:42.115Z,98.98
2023-02-22T19:36:10.656Z,98.97
2023-02-22T19:38:37.764Z,98.58
2023-02-22T19:41:12.369Z,98.77
2023-02-22T19:43:39.174Z,99.08
2023-02-22T19:46:07.338Z,99.13
2023-02-22T19:48:34.626Z,99.05
2023-02-22T19:51:10.189Z,99.33
2023-02-22T19:53:40.817Z,99.27
2023-02-22T19:56:09.593Z,99.45
2023-02-22T19:58:41.016Z,99.55
2023-02-22T20:01:14.419Z,99.46
2023-02-22T20:03:42.469Z,99.63
2023-02-22T20:06:12.362Z,99.42
2023-02-22T20:08:42.086Z,99.33
2023-02-22T20:11:10.501Z,98.88
2023-02-22T20:13:41.155Z,99.16
2023-02-22T20:16:09.906Z,98.81
2023-02-22T20:18:36.820Z,98.82
2023-02-22T20:21:11.377Z,99.40
2023-02-22T20:23:40.610Z,99.34
2023-02-22T20:26:15.209Z,99.75
2023-02-22T20:28:42.101Z,99.63
2023-02-22T20:31:11.279Z,100.00
2023-02-22T20:33:41.613Z,99.94
2023-02-22T20:36:10.407Z,100.00
2023-02-22T20:38:37.651Z,100.00
2023-02-22T20:41:09.660Z,100.00
2023-02-22T20:43:36.242Z,100.00
2023-02-22T20:46:05.294Z,100.00
2023-02-22T20:48:32.599Z,100.00
2023-02-22T20:51:07.254Z,100.00
2023-02-22T20:53:35.264Z,100.00
2023-02-22T20:56:02.365Z,100.00
2023-02-22T20:58:29.303Z,100.00
2023-02-22T21:00:55.899Z,100.00
2023-02-22T21:03:22.551Z,100.00
2023-02-22T21:05:49.122Z,100.00
2023-02-22T21:08:15.738Z,100.00
2023-02-22T21:10:44.749Z,100.00
2023-02-22T21:13:11.699Z,100.00
2023-02-22T21:15:43.522Z,100.00
2023-02-22T21:18:11.080Z,100.00
2023-02-22T21:20:40.818Z,100.00
2023-02-22T21:23:08.419Z,100.00
2023-02-22T21:25:35.072Z,100.00
2023-02-22T21:28:01.664Z,100.00
2023-02-22T21:30:28.543Z,100.00
2023-02-22T21:32:56.735Z,100.00
2023-02-22T21:35:25.090Z,100.00
2023-02-22T21:37:52.538Z,100.00
2023-02-22T21:40:19.318Z,100.00
2023-02-22T21:42:48.063Z,100.00
2023-02-22T21:45:20.480Z,100.00
2023-02-22T21:47:48.588Z,100.00
2023-02-22T21:50:18.096Z,100.00
2023-02-22T21:52:47.084Z,100.00
2023-02-22T21:55:15.207Z,100.00
2023-02-22T21:57:42.881Z,100.00
2023-02-22T22:00:28.955Z,100.00
2023-02-22T22:03:09.634Z,100.00
2023-02-22T22:05:39.404Z,100.00
2023-02-22T22:08:13.217Z,100.00
2023-02-22T22:10:39.887Z,100.00
2023-02-22T22:13:09.011Z,100.00
2023-02-22T22:15:37.385Z,100.00
2023-02-22T22:18:06.722Z,100.00
2023-02-22T22:20:34.007Z,100.00
2023-02-22T22:23:00.662Z,100.00
2023-02-22T22:25:28.418Z,100.00
2023-02-22T22:27:56.224Z,100.00
2023-02-22T22:30:23.475Z,100.00
2023-02-22T22:32:50.435Z,100.00
2023-02-22T22:35:17.050Z,100.00
2023-02-22T22:37:43.689Z,100.00
2023-02-22T22:40:15.661Z,100.00
2023-02-22T22:42:43.289Z,100.00
2023-02-22T22:45:11.710Z,100.00
2023-02-22T22:47:39.396Z,100.00
2023-02-22T22:50:07.240Z,100.00
2023-02-22T22:52:35.459Z,100.00
2023-02-22T22:55:02.707Z,100.00
2023-02-22T22:57:29.617Z,100.00
2023-02-22T22:59:56.251Z,100.00
2023-02-22T23:02:22.818Z,100.00
2023-02-22T23:04:50.360Z,100.00
2023-02-22T23:07:17.245Z,100.00
2023-02-22T23:09:44.063Z,100.00
2023-02-22T23:12:16.546Z,100.00
2023-02-22T23:14:44.645Z,100.00
2023-02-22T23:17:15.894Z,100.00
2023-02-22T23:19:46.987Z,100.00
2023-02-22T23:22:14.508Z,100.00
2023-02-22T23:24:42.680Z,100.00
2023-02-22T23:27:10.787Z,100.00
2023-02-22T23:29:39.645Z,100.00
2023-02-22T23:32:07.423Z,100.00
2023-02-22T23:34:36.252Z,100.00
2023-02-22T23:37:03.240Z,100.00
2023-02-22T23:39:29.852Z,100.00
2023-02-22T23:42:00.696Z,100.00
2023-02-22T23:44:28.160Z,100.00
2023-02-22T23:46:55.334Z,100.00
2023-02-22T23:49:25.781Z,100.00
2023-02-22T23:51:52.782Z,100.00
2023-02-22T23:54:20.305Z,100.00
2023-02-22T23:56:56.424Z,100.00
2023-02-22T23:59:25.478Z,100.00
